CheckWX is a tool to help pilots better visualize weather data.  It is not intended as a substitute for an official pre-flight weather briefing.

17:15:04 UTC

KHUM METAR
Houma-Terrebonne Airport
Houma, Louisiana, USA
Current

28 mins ago

KHUM 211647Z 00000KT 7SM SCT027 SCT036 26/24 A3004
Observed
Jul-21 @ 16:47 UTC
Visibility
7 SM
Flight Rules
VFR
Cloud Levels
  • Scattered at 2,700' AGL
  • Scattered at 3,600' AGL
Temperature
26°C / 79°F
Dewpoint
24°C / 75°F
Humidity
89%
Altimeter
30.04" Hg
Pressure
1017.32 hPa
Previous

1 hour ago

KHUM 211547Z 27006KT 5SM SCT022 SCT031 24/23 A3003
Observed
Jul-21 @ 15:47 UTC
Wind
  • 270° at 6 KTS
Visibility
5 SM
Flight Rules
MVFR
Cloud Levels
  • Scattered at 2,200' AGL
  • Scattered at 3,100' AGL
Temperature
24°C / 75°F
Dewpoint
23°C / 73°F
Humidity
94%
Altimeter
30.03" Hg
Pressure
1016.92 hPa
Previous

2 hours ago

KHUM 211535Z 26006KT 4SM SCT010 BKN025 24/23 A3004 RMK RAE1530
Observed
Jul-21 @ 15:35 UTC
Wind
  • 260° at 6 KTS
Visibility
4 SM
Flight Rules
MVFR
Cloud Levels
  • Scattered at 1,000' AGL
  • Broken at 2,500' AGL
Temperature
24°C / 75°F
Dewpoint
23°C / 73°F
Humidity
94%
Altimeter
30.04" Hg
Pressure
1017.32 hPa